Time;durP1;ratioP1;P1;durP2;ratioP2;P2;SDS_P1;SDS_P2;PMS_P1;PMS_P2;Temp;Humidity;BMP_temperature;BMP_pressure;BME280_temperature;BME280_humidity;BME280_pressure;Samples;Min_cycle;Max_cycle;Signal;HPM_P1;HPM_P2
2024/01/03 00:01:21;;;;;;;15.30;4.85;;;;;;;;;;5032262;28;20163;-69
2024/01/03 00:03:47;;;;;;;9.45;3.70;;;;;;;;;;5034081;28;20037;-69
2024/01/03 00:06:15;;;;;;;10.95;4.25;;;;;;;;;;5033360;28;20059;-69
2024/01/03 00:08:42;;;;;;;10.25;3.53;;;;;;;;;;5013559;28;20445;-68
2024/01/03 00:11:08;;;;;;;10.60;3.58;;;;;;;;;;5032756;28;20690;-69
2024/01/03 00:13:51;;;;;;;13.52;3.80;;;;;;;;;;5033842;28;20280;-68
2024/01/03 00:16:17;;;;;;;;;;;;;;;;;;5030682;28;20353;-68
2024/01/03 00:18:49;;;;;;;9.82;4.20;;;;;;;;;;5031442;28;19925;-69
2024/01/03 00:21:19;;;;;;;17.73;4.60;;;;;;;;;;5033164;28;20511;-68
2024/01/03 00:23:50;;;;;;;12.00;4.43;;;;;;;;;;5034014;28;20085;-68
2024/01/03 00:26:16;;;;;;;12.68;4.22;;;;;;;;;;5032842;28;20041;-69
2024/01/03 00:28:42;;;;;;;15.55;4.30;;;;;;;;;;5034027;28;20119;-69
2024/01/03 00:31:31;;;;;;;13.00;4.78;;;;;;;;;;5030813;28;20895;-69
2024/01/03 00:33:58;;;;;;;14.27;3.97;;;;;;;;;;5031210;28;20532;-69
2024/01/03 00:36:24;;;;;;;13.73;4.15;;;;;;;;;;5033650;28;20238;-69
2024/01/03 00:38:50;;;;;;;9.52;3.67;;;;;;;;;;5031660;28;20428;-69
2024/01/03 00:41:16;;;;;;;13.38;4.72;;;;;;;;;;5049684;28;20279;-68
2024/01/03 00:43:42;;;;;;;13.63;4.53;;;;;;;;;;5037292;28;20048;-69
2024/01/03 00:46:08;;;;;;;13.02;3.95;;;;;;;;;;5038498;28;20235;-69
2024/01/03 00:48:35;;;;;;;15.73;4.75;;;;;;;;;;5037024;28;20125;-68
2024/01/03 00:51:02;;;;;;;24.60;6.25;;;;;;;;;;5038434;28;20033;-70
2024/01/03 00:53:28;;;;;;;11.77;4.63;;;;;;;;;;5035002;28;20592;-69
2024/01/03 00:55:54;;;;;;;18.63;5.40;;;;;;;;;;5036906;28;20056;-69
2024/01/03 00:58:21;;;;;;;13.18;4.53;;;;;;;;;;5037729;28;20381;-68
2024/01/03 01:00:47;;;;;;;15.05;4.93;;;;;;;;;;5038109;28;20040;-67
2024/01/03 01:03:14;;;;;;;8.77;4.47;;;;;;;;;;5038216;28;20045;-68
2024/01/03 01:05:40;;;;;;;22.35;5.82;;;;;;;;;;5037909;28;20298;-68
2024/01/03 01:08:07;;;;;;;16.15;6.28;;;;;;;;;;5036289;28;20045;-69
2024/01/03 01:10:33;;;;;;;19.02;5.18;;;;;;;;;;5037647;28;20459;-68
2024/01/03 01:12:59;;;;;;;21.00;5.68;;;;;;;;;;5036782;28;20044;-68
2024/01/03 01:15:25;;;;;;;18.48;5.78;;;;;;;;;;5038087;28;20257;-68
2024/01/03 01:17:51;;;;;;;17.88;5.35;;;;;;;;;;5037091;28;20060;-67
2024/01/03 01:20:17;;;;;;;14.75;5.50;;;;;;;;;;5037630;28;20195;-70
2024/01/03 01:22:44;;;;;;;17.50;5.43;;;;;;;;;;5038653;28;20043;-70
2024/01/03 01:25:10;;;;;;;17.08;5.38;;;;;;;;;;5038156;28;20231;-68
2024/01/03 01:27:36;;;;;;;17.88;5.97;;;;;;;;;;5036206;28;20040;-68
2024/01/03 01:30:02;;;;;;;17.05;4.45;;;;;;;;;;5036629;28;20048;-69
2024/01/03 01:32:28;;;;;;;15.02;5.05;;;;;;;;;;5037608;28;20211;-69
2024/01/03 01:34:54;;;;;;;16.20;6.70;;;;;;;;;;5037491;28;20056;-67
2024/01/03 01:37:23;;;;;;;15.48;4.80;;;;;;;;;;5037398;28;20561;-69
2024/01/03 01:39:49;;;;;;;24.33;6.82;;;;;;;;;;5035321;28;20539;-69
2024/01/03 01:42:19;;;;;;;18.95;5.43;;;;;;;;;;5037606;28;21554;-69
2024/01/03 01:44:45;;;;;;;14.85;5.45;;;;;;;;;;5037522;28;20228;-69
2024/01/03 01:47:12;;;;;;;16.70;5.03;;;;;;;;;;5018903;28;20045;-69
2024/01/03 01:49:42;;;;;;;16.33;4.45;;;;;;;;;;5037764;28;20056;-69
2024/01/03 01:52:09;;;;;;;14.68;4.97;;;;;;;;;;5015916;28;20538;-71
2024/01/03 01:54:36;;;;;;;18.88;6.68;;;;;;;;;;5036357;28;20121;-69
2024/01/03 01:57:02;;;;;;;13.95;4.25;;;;;;;;;;5036185;28;20044;-69
2024/01/03 01:59:28;;;;;;;15.93;4.75;;;;;;;;;;5036774;28;20049;-69
2024/01/03 02:01:54;;;;;;;12.27;4.28;;;;;;;;;;5035293;28;20397;-69
2024/01/03 02:04:20;;;;;;;15.68;4.20;;;;;;;;;;5036693;28;20044;-68
2024/01/03 02:06:47;;;;;;;11.38;4.38;;;;;;;;;;5052303;28;20377;-69
2024/01/03 02:09:13;;;;;;;10.18;4.20;;;;;;;;;;5035252;28;20331;-71
2024/01/03 02:11:46;;;;;;;13.40;3.65;;;;;;;;;;5035813;28;20098;-69
2024/01/03 02:14:12;;;;;;;10.48;3.60;;;;;;;;;;5035631;28;20075;-69
2024/01/03 02:16:38;;;;;;;15.02;4.10;;;;;;;;;;5036541;28;20037;-69
2024/01/03 02:19:04;;;;;;;10.90;3.47;;;;;;;;;;5036896;28;20913;-68
2024/01/03 02:21:31;;;;;;;12.00;3.47;;;;;;;;;;5018700;28;20045;-68
2024/01/03 02:23:57;;;;;;;8.07;3.40;;;;;;;;;;5035843;28;20043;-69
2024/01/03 02:26:23;;;;;;;11.48;3.55;;;;;;;;;;5036650;28;20102;-69
2024/01/03 02:28:49;;;;;;;11.57;3.92;;;;;;;;;;5036362;28;20527;-69
2024/01/03 02:31:15;;;;;;;8.13;3.33;;;;;;;;;;5035356;28;20571;-69
2024/01/03 02:33:41;;;;;;;18.73;3.97;;;;;;;;;;5036490;28;20198;-69
2024/01/03 02:36:07;;;;;;;5.45;2.67;;;;;;;;;;5034866;28;20294;-69
2024/01/03 02:38:34;;;;;;;8.70;3.22;;;;;;;;;;5034189;28;20064;-70
2024/01/03 02:41:00;;;;;;;11.93;4.18;;;;;;;;;;5036030;28;20122;-69
2024/01/03 02:43:26;;;;;;;9.25;3.60;;;;;;;;;;5017109;28;20401;-69
2024/01/03 02:45:52;;;;;;;10.48;3.85;;;;;;;;;;5036180;28;20048;-69
2024/01/03 02:48:18;;;;;;;10.18;2.90;;;;;;;;;;5036043;28;20259;-69
2024/01/03 02:50:48;;;;;;;15.65;3.33;;;;;;;;;;5033929;28;20041;-69
2024/01/03 02:53:15;;;;;;;13.57;4.38;;;;;;;;;;5035073;28;20118;-69
2024/01/03 02:55:41;;;;;;;9.35;4.15;;;;;;;;;;5017248;28;21031;-69
2024/01/03 02:58:07;;;;;;;11.65;3.30;;;;;;;;;;5036020;28;20405;-67
2024/01/03 03:00:36;;;;;;;11.65;3.78;;;;;;;;;;5034408;28;20180;-69
2024/01/03 03:03:02;;;;;;;9.73;3.03;;;;;;;;;;5051360;28;20204;-68
2024/01/03 03:05:28;;;;;;;14.85;3.78;;;;;;;;;;5033410;28;20357;-68
2024/01/03 03:07:54;;;;;;;9.38;3.47;;;;;;;;;;5034384;28;20053;-67
2024/01/03 03:10:23;;;;;;;7.35;2.95;;;;;;;;;;5035451;28;20908;-69
2024/01/03 03:12:49;;;;;;;12.43;3.67;;;;;;;;;;5035505;28;21397;-69
2024/01/03 03:15:16;;;;;;;12.65;3.55;;;;;;;;;;5036046;28;20231;-69
2024/01/03 03:17:42;;;;;;;12.38;3.70;;;;;;;;;;5035214;28;20156;-69
2024/01/03 03:20:08;;;;;;;10.20;2.95;;;;;;;;;;5036235;28;20329;-68
2024/01/03 03:22:34;;;;;;;8.18;3.25;;;;;;;;;;5034108;28;20772;-68
2024/01/03 03:25:00;;;;;;;9.18;3.10;;;;;;;;;;5035012;28;20051;-68
2024/01/03 03:27:27;;;;;;;11.25;2.97;;;;;;;;;;5035980;28;20488;-68
2024/01/03 03:29:53;;;;;;;7.53;3.20;;;;;;;;;;5034997;28;20413;-68
2024/01/03 03:32:19;;;;;;;12.90;2.95;;;;;;;;;;5033145;28;20121;-69
2024/01/03 03:34:45;;;;;;;10.18;2.83;;;;;;;;;;5049637;28;20650;-69
2024/01/03 03:37:11;;;;;;;11.48;3.63;;;;;;;;;;5034773;28;20199;-68
2024/01/03 03:39:37;;;;;;;7.32;3.17;;;;;;;;;;5017451;28;20072;-69
2024/01/03 03:42:04;;;;;;;5.72;2.58;;;;;;;;;;5033620;28;20041;-68
2024/01/03 03:44:30;;;;;;;5.40;2.22;;;;;;;;;;5035055;28;20429;-69
2024/01/03 03:46:56;;;;;;;6.20;2.40;;;;;;;;;;5033535;28;22306;-69
2024/01/03 03:49:22;;;;;;;5.10;2.60;;;;;;;;;;5035813;28;20028;-68
2024/01/03 03:51:48;;;;;;;10.50;3.33;;;;;;;;;;5035591;28;20488;-69
2024/01/03 03:54:15;;;;;;;6.03;2.55;;;;;;;;;;5015832;28;20044;-68
2024/01/03 03:56:41;;;;;;;13.82;3.50;;;;;;;;;;5035161;28;20134;-68
2024/01/03 03:59:07;;;;;;;6.95;2.67;;;;;;;;;;5017239;28;20133;-68
2024/01/03 04:01:33;;;;;;;6.93;2.45;;;;;;;;;;5033595;28;20194;-68
2024/01/03 04:03:59;;;;;;;6.57;2.25;;;;;;;;;;5034287;28;20074;-68
2024/01/03 04:06:25;;;;;;;4.57;2.47;;;;;;;;;;5033796;28;20049;-69
2024/01/03 04:08:52;;;;;;;4.05;2.47;;;;;;;;;;5035062;28;20240;-69
2024/01/03 04:11:18;;;;;;;7.50;2.30;;;;;;;;;;5033697;28;20657;-69
2024/01/03 04:13:44;;;;;;;13.20;2.72;;;;;;;;;;5033776;28;20060;-68
2024/01/03 04:16:11;;;;;;;11.90;3.33;;;;;;;;;;5049819;28;20049;-69
2024/01/03 04:18:38;;;;;;;6.93;3.25;;;;;;;;;;5038077;28;20157;-69
2024/01/03 04:21:08;;;;;;;8.45;2.30;;;;;;;;;;5039395;28;20221;-69
2024/01/03 04:23:34;;;;;;;6.75;3.17;;;;;;;;;;5037981;28;20250;-69
2024/01/03 04:26:01;;;;;;;7.43;2.30;;;;;;;;;;5038782;28;20048;-71
2024/01/03 04:28:27;;;;;;;6.20;2.58;;;;;;;;;;5038527;28;20049;-69
2024/01/03 04:30:53;;;;;;;6.38;2.40;;;;;;;;;;5053743;28;20155;-69
2024/01/03 04:33:19;;;;;;;5.07;2.03;;;;;;;;;;5038444;28;20552;-68
2024/01/03 04:35:45;;;;;;;8.23;2.35;;;;;;;;;;5039201;28;20247;-69
2024/01/03 04:38:11;;;;;;;5.82;2.45;;;;;;;;;;5038248;28;20041;-69
2024/01/03 04:40:38;;;;;;;5.25;2.35;;;;;;;;;;5038013;28;20157;-69
2024/01/03 04:43:04;;;;;;;8.18;2.78;;;;;;;;;;5036569;28;20048;-68
2024/01/03 04:45:30;;;;;;;10.45;2.47;;;;;;;;;;5038277;28;20079;-66
2024/01/03 04:47:56;;;;;;;9.77;3.17;;;;;;;;;;5038151;28;20029;-70
2024/01/03 04:50:22;;;;;;;6.80;2.60;;;;;;;;;;5037177;28;20235;-69
2024/01/03 04:52:48;;;;;;;12.55;3.38;;;;;;;;;;5038028;28;20626;-70
2024/01/03 04:55:14;;;;;;;5.95;2.28;;;;;;;;;;5036559;28;20174;-68
2024/01/03 04:57:40;;;;;;;8.40;2.55;;;;;;;;;;5038139;28;20052;-68
2024/01/03 05:00:07;;;;;;;11.65;2.55;;;;;;;;;;5054173;28;20044;-69
2024/01/03 05:02:33;;;;;;;9.18;3.65;;;;;;;;;;5037785;28;20105;-67
2024/01/03 05:04:59;;;;;;;6.80;3.13;;;;;;;;;;5039162;28;20040;-68
2024/01/03 05:07:26;;;;;;;14.68;3.38;;;;;;;;;;5053590;28;20223;-68
2024/01/03 05:09:52;;;;;;;7.60;2.58;;;;;;;;;;5038813;28;20055;-68
2024/01/03 05:12:18;;;;;;;12.10;3.28;;;;;;;;;;5036915;28;20083;-68
2024/01/03 05:14:44;;;;;;;10.32;3.00;;;;;;;;;;5036156;28;20135;-69
2024/01/03 05:17:10;;;;;;;9.00;2.88;;;;;;;;;;5036321;28;20126;-69
2024/01/03 05:19:36;;;;;;;8.45;3.50;;;;;;;;;;5019169;28;20075;-69
2024/01/03 05:22:02;;;;;;;13.48;4.13;;;;;;;;;;5036383;28;20569;-69
2024/01/03 05:24:29;;;;;;;8.32;3.30;;;;;;;;;;5036616;28;20037;-69
2024/01/03 05:26:55;;;;;;;6.97;2.50;;;;;;;;;;5037463;28;20580;-69
2024/01/03 05:29:21;;;;;;;10.73;2.97;;;;;;;;;;5038431;28;20196;-69
2024/01/03 05:31:48;;;;;;;8.52;3.78;;;;;;;;;;5037347;28;20047;-69
2024/01/03 05:34:15;;;;;;;8.05;2.63;;;;;;;;;;5036525;28;20086;-69
2024/01/03 05:36:41;;;;;;;6.75;2.42;;;;;;;;;;5033797;28;20208;-69
2024/01/03 05:39:07;;;;;;;10.68;3.05;;;;;;;;;;5036384;28;20120;-69
2024/01/03 05:41:34;;;;;;;12.27;2.55;;;;;;;;;;5037481;28;20151;-69
2024/01/03 05:44:00;;;;;;;8.43;3.10;;;;;;;;;;5037328;28;20032;-69
2024/01/03 05:46:26;;;;;;;10.10;3.72;;;;;;;;;;5036224;28;20056;-69
2024/01/03 05:48:52;;;;;;;10.68;4.85;;;;;;;;;;5035421;28;20259;-69
2024/01/03 05:51:18;;;;;;;11.30;4.53;;;;;;;;;;5036312;28;20093;-69
2024/01/03 05:53:47;;;;;;;14.63;5.05;;;;;;;;;;5052148;28;20144;-69
2024/01/03 05:56:16;;;;;;;12.13;5.10;;;;;;;;;;5036644;28;21098;-69
2024/01/03 05:58:43;;;;;;;14.00;4.40;;;;;;;;;;5038118;28;20192;-69
2024/01/03 06:01:09;;;;;;;14.88;5.25;;;;;;;;;;5036673;28;20033;-68
2024/01/03 06:03:35;;;;;;;12.95;4.47;;;;;;;;;;5037667;28;20101;-68
2024/01/03 06:06:02;;;;;;;16.17;5.07;;;;;;;;;;5036881;28;20596;-68
2024/01/03 06:08:28;;;;;;;16.38;4.90;;;;;;;;;;5036978;28;20170;-69
2024/01/03 06:10:55;;;;;;;16.80;4.57;;;;;;;;;;5035906;28;20040;-69
2024/01/03 06:13:24;;;;;;;14.18;5.32;;;;;;;;;;5035848;28;20036;-69
2024/01/03 06:15:50;;;;;;;12.63;4.53;;;;;;;;;;5034909;28;20099;-69
2024/01/03 06:18:16;;;;;;;15.45;5.40;;;;;;;;;;5037242;28;20067;-68
2024/01/03 06:20:43;;;;;;;17.98;5.22;;;;;;;;;;5018864;28;20121;-69
2024/01/03 06:23:09;;;;;;;18.40;5.68;;;;;;;;;;5034201;28;20283;-67
2024/01/03 06:25:37;;;;;;;15.80;4.35;;;;;;;;;;5034719;28;20040;-68
2024/01/03 06:28:03;;;;;;;20.25;5.95;;;;;;;;;;5032985;28;20040;-68
2024/01/03 06:30:29;;;;;;;12.00;5.40;;;;;;;;;;5034844;28;20055;-68
2024/01/03 06:32:55;;;;;;;13.85;5.07;;;;;;;;;;5034878;28;20075;-68
2024/01/03 06:35:21;;;;;;;21.63;4.57;;;;;;;;;;5034941;28;20428;-68
2024/01/03 06:37:47;;;;;;;18.23;5.35;;;;;;;;;;5035764;28;20219;-68
2024/01/03 06:40:14;;;;;;;9.70;3.75;;;;;;;;;;5034112;28;20056;-68
2024/01/03 06:42:41;;;;;;;15.98;5.32;;;;;;;;;;5031584;28;20388;-69
2024/01/03 06:45:07;;;;;;;16.83;5.10;;;;;;;;;;5034341;28;20392;-68
2024/01/03 06:47:33;;;;;;;18.70;5.47;;;;;;;;;;5047875;28;20255;-68
2024/01/03 06:49:59;;;;;;;18.42;3.92;;;;;;;;;;5026246;28;20159;-69
2024/01/03 06:52:32;;;;;;;10.50;4.88;;;;;;;;;;5029323;28;20094;-69
2024/01/03 06:54:58;;;;;;;20.27;5.70;;;;;;;;;;5032276;28;20040;-68
2024/01/03 06:57:24;;;;;;;15.00;5.10;;;;;;;;;;5031773;28;20128;-68
2024/01/03 06:59:50;;;;;;;21.77;5.50;;;;;;;;;;4998890;28;20128;-69
2024/01/03 07:02:17;;;;;;;21.08;6.82;;;;;;;;;;5016464;28;20147;-68
2024/01/03 07:04:43;;;;;;;21.13;5.70;;;;;;;;;;5011227;28;20068;-69
2024/01/03 07:07:09;;;;;;;15.20;4.13;;;;;;;;;;5027868;28;20443;-68
2024/01/03 07:09:36;;;;;;;26.13;6.63;;;;;;;;;;5030556;28;20056;-70
2024/01/03 07:12:02;;;;;;;16.83;6.47;;;;;;;;;;5030001;28;20098;-69
2024/01/03 07:14:28;;;;;;;25.20;6.00;;;;;;;;;;5031268;28;20123;-69
2024/01/03 07:16:55;;;;;;;13.25;6.85;;;;;;;;;;5046066;28;20431;-69
2024/01/03 07:19:21;;;;;;;19.38;5.82;;;;;;;;;;5028093;28;20072;-69
2024/01/03 07:21:47;;;;;;;16.08;4.70;;;;;;;;;;5032743;28;20044;-69
2024/01/03 07:24:13;;;;;;;13.88;5.82;;;;;;;;;;5031402;28;20206;-69
2024/01/03 07:26:39;;;;;;;16.45;5.25;;;;;;;;;;5034120;28;20040;-69
2024/01/03 07:29:05;;;;;;;11.10;4.15;;;;;;;;;;5030502;28;20705;-69
2024/01/03 07:31:31;;;;;;;13.93;4.63;;;;;;;;;;5032305;28;20601;-68
2024/01/03 07:33:57;;;;;;;20.10;4.65;;;;;;;;;;5023913;28;20044;-69
2024/01/03 07:36:23;;;;;;;18.23;6.03;;;;;;;;;;5030399;28;20193;-69
2024/01/03 07:38:50;;;;;;;10.90;4.53;;;;;;;;;;5030828;28;20127;-69
2024/01/03 07:41:19;;;;;;;19.35;4.53;;;;;;;;;;5029335;28;20052;-69
2024/01/03 07:43:45;;;;;;;18.45;6.72;;;;;;;;;;5030408;28;20044;-69
2024/01/03 07:46:12;;;;;;;14.32;4.00;;;;;;;;;;5029090;28;20241;-70
2024/01/03 07:48:38;;;;;;;12.13;5.03;;;;;;;;;;5029575;28;20076;-70
2024/01/03 07:51:04;;;;;;;11.35;4.05;;;;;;;;;;5030668;28;20083;-68
2024/01/03 07:53:30;;;;;;;15.88;5.18;;;;;;;;;;5029972;28;20188;-69
2024/01/03 07:55:56;;;;;;;13.80;4.63;;;;;;;;;;5028973;28;20170;-68
2024/01/03 07:58:22;;;;;;;12.02;4.05;;;;;;;;;;5030146;28;20538;-68
2024/01/03 08:00:48;;;;;;;13.82;4.70;;;;;;;;;;5033748;28;20480;-68
2024/01/03 08:03:14;;;;;;;12.65;5.20;;;;;;;;;;5030343;28;20055;-69
2024/01/03 08:05:41;;;;;;;14.70;4.43;;;;;;;;;;5032253;28;20048;-69
2024/01/03 08:08:07;;;;;;;17.58;4.95;;;;;;;;;;5045942;28;20501;-69
2024/01/03 08:10:33;;;;;;;14.70;4.38;;;;;;;;;;5031791;28;20033;-69
2024/01/03 08:12:59;;;;;;;13.35;4.07;;;;;;;;;;5030275;28;20646;-69
2024/01/03 08:15:25;;;;;;;13.88;4.97;;;;;;;;;;5031481;28;20282;-70
2024/01/03 08:17:51;;;;;;;17.55;4.30;;;;;;;;;;4996509;28;20125;-68
2024/01/03 08:20:17;;;;;;;17.88;4.95;;;;;;;;;;5013270;28;20370;-68
2024/01/03 08:22:44;;;;;;;13.25;3.97;;;;;;;;;;5031709;28;20112;-69
2024/01/03 08:25:11;;;;;;;11.60;4.47;;;;;;;;;;5030239;28;20075;-69
2024/01/03 08:27:38;;;;;;;9.13;3.40;;;;;;;;;;5029972;28;20432;-69
2024/01/03 08:30:04;;;;;;;11.65;4.18;;;;;;;;;;5031656;28;20049;-69
2024/01/03 08:32:30;;;;;;;11.88;3.53;;;;;;;;;;5031535;28;20048;-69
2024/01/03 08:34:56;;;;;;;8.98;4.00;;;;;;;;;;5030832;28;20124;-69
2024/01/03 08:37:22;;;;;;;10.63;4.50;;;;;;;;;;5031196;28;20052;-69
2024/01/03 08:39:49;;;;;;;15.60;4.88;;;;;;;;;;5032299;28;20156;-69
2024/01/03 08:42:15;;;;;;;12.45;4.15;;;;;;;;;;5031584;28;20509;-69
2024/01/03 08:44:41;;;;;;;16.85;4.93;;;;;;;;;;5029394;28;20528;-69
2024/01/03 08:47:07;;;;;;;19.02;4.07;;;;;;;;;;5031496;28;20079;-69
2024/01/03 08:49:34;;;;;;;9.70;3.50;;;;;;;;;;5030946;28;20099;-69
2024/01/03 08:52:01;;;;;;;11.32;4.60;;;;;;;;;;5030780;28;20086;-69
2024/01/03 08:54:27;;;;;;;16.20;4.70;;;;;;;;;;5031144;28;20037;-69
2024/01/03 08:56:53;;;;;;;14.27;4.00;;;;;;;;;;5031278;28;20076;-69
2024/01/03 08:59:20;;;;;;;9.27;3.63;;;;;;;;;;5033067;28;20041;-69
2024/01/03 09:01:50;;;;;;;16.58;4.60;;;;;;;;;;5030428;28;20033;-68
2024/01/03 09:04:16;;;;;;;11.15;4.45;;;;;;;;;;5037177;28;20053;-69
2024/01/03 09:06:42;;;;;;;9.38;3.72;;;;;;;;;;5038485;28;20044;-69
2024/01/03 09:09:09;;;;;;;8.23;3.83;;;;;;;;;;5038026;28;20275;-69
2024/01/03 09:11:36;;;;;;;9.35;4.05;;;;;;;;;;5050787;28;20504;-68
2024/01/03 09:14:02;;;;;;;11.18;3.47;;;;;;;;;;5036142;28;20434;-69
2024/01/03 09:16:30;;;;;;;11.52;4.40;;;;;;;;;;5038254;28;20053;-69
2024/01/03 09:18:57;;;;;;;9.32;3.58;;;;;;;;;;5033943;28;20098;-69
2024/01/03 09:21:23;;;;;;;10.57;4.45;;;;;;;;;;5002302;28;20163;-69
2024/01/03 09:23:50;;;;;;;8.18;3.58;;;;;;;;;;5034147;28;20071;-70
2024/01/03 09:26:19;;;;;;;15.02;4.18;;;;;;;;;;5031961;28;20049;-70
2024/01/03 09:28:47;;;;;;;11.40;3.83;;;;;;;;;;5035636;28;20129;-69
2024/01/03 09:31:14;;;;;;;7.88;3.22;;;;;;;;;;5036021;28;20082;-68
2024/01/03 09:33:40;;;;;;;10.07;3.58;;;;;;;;;;5036036;28;20718;-69
2024/01/03 09:36:06;;;;;;;12.32;3.67;;;;;;;;;;5035698;28;20057;-70
2024/01/03 09:38:32;;;;;;;11.60;3.33;;;;;;;;;;5018553;28;20294;-68
2024/01/03 09:40:59;;;;;;;13.48;4.05;;;;;;;;;;5032997;28;20142;-69
2024/01/03 09:43:25;;;;;;;8.48;3.17;;;;;;;;;;5036196;28;20703;-69
2024/01/03 09:45:52;;;;;;;18.30;5.25;;;;;;;;;;5033825;28;20228;-69
2024/01/03 09:48:19;;;;;;;12.52;3.58;;;;;;;;;;5036977;28;20056;-69
2024/01/03 09:50:45;;;;;;;10.10;2.95;;;;;;;;;;5034169;28;20409;-69
2024/01/03 09:53:12;;;;;;;8.48;3.13;;;;;;;;;;5033150;28;20221;-69
2024/01/03 09:55:38;;;;;;;11.57;3.72;;;;;;;;;;5034986;28;20100;-69
2024/01/03 09:58:04;;;;;;;8.93;3.20;;;;;;;;;;5036635;28;20550;-69
2024/01/03 10:00:31;;;;;;;9.85;3.25;;;;;;;;;;5033351;28;20305;-70
2024/01/03 10:03:01;;;;;;;11.02;3.63;;;;;;;;;;5035479;28;20205;-69
2024/01/03 10:05:27;;;;;;;9.30;3.00;;;;;;;;;;5031897;28;20044;-69
2024/01/03 10:07:53;;;;;;;9.88;3.25;;;;;;;;;;5030460;28;20040;-69
2024/01/03 10:10:38;;;;;;;9.77;3.58;;;;;;;;;;5014995;28;20474;-69
2024/01/03 10:13:14;;;;;;;10.55;3.13;;;;;;;;;;5036551;28;20040;-68
2024/01/03 10:15:41;;;;;;;10.52;3.35;;;;;;;;;;5037717;28;20049;-68
2024/01/03 10:18:08;;;;;;;9.93;3.28;;;;;;;;;;5021149;28;20058;-69
2024/01/03 10:20:35;;;;;;;7.15;3.58;;;;;;;;;;5035376;28;20045;-69
2024/01/03 10:23:09;;;;;;;8.52;3.38;;;;;;;;;;5036993;28;20045;-69
2024/01/03 10:25:35;;;;;;;6.18;3.35;;;;;;;;;;5036114;28;20080;-69
2024/01/03 10:28:02;;;;;;;10.35;3.15;;;;;;;;;;5035611;28;20048;-69
2024/01/03 10:30:29;;;;;;;9.95;4.30;;;;;;;;;;5038088;28;20040;-69
2024/01/03 10:33:03;;;;;;;6.95;2.75;;;;;;;;;;5035676;28;20045;-69
2024/01/03 10:35:29;;;;;;;6.93;2.63;;;;;;;;;;5036926;28;20694;-70
2024/01/03 10:37:57;;;;;;;8.00;3.17;;;;;;;;;;5037262;28;20048;-69
2024/01/03 10:40:30;;;;;;;10.43;3.13;;;;;;;;;;5037895;28;20110;-69
2024/01/03 10:42:57;;;;;;;9.00;2.50;;;;;;;;;;5020022;28;20050;-69
2024/01/03 10:45:23;;;;;;;5.72;3.03;;;;;;;;;;5037312;28;20576;-68
2024/01/03 10:47:50;;;;;;;7.30;2.10;;;;;;;;;;5033207;28;20056;-69
2024/01/03 10:50:17;;;;;;;12.98;2.80;;;;;;;;;;5033695;28;20218;-68
2024/01/03 10:52:44;;;;;;;9.57;3.70;;;;;;;;;;5014517;28;20048;-69
2024/01/03 10:55:11;;;;;;;8.85;2.60;;;;;;;;;;5033291;28;20611;-69
2024/01/03 10:57:40;;;;;;;12.98;3.35;;;;;;;;;;5046845;28;20864;-69
2024/01/03 11:00:12;;;;;;;8.90;3.03;;;;;;;;;;5033193;28;20530;-68
2024/01/03 11:02:42;;;;;;;10.38;3.25;;;;;;;;;;5031502;28;20395;-68
2024/01/03 11:05:26;;;;;;;10.23;3.20;;;;;;;;;;5026716;28;20141;-68
2024/01/03 11:07:55;;;;;;;9.05;3.03;;;;;;;;;;5031802;28;20044;-68
2024/01/03 11:10:39;;;;;;;9.40;3.55;;;;;;;;;;5032001;28;20519;-69
2024/01/03 11:13:25;;;;;;;13.55;4.68;;;;;;;;;;5029275;28;20440;-69
2024/01/03 11:15:52;;;;;;;10.35;3.58;;;;;;;;;;5032746;28;20076;-69
2024/01/03 11:18:37;;;;;;;8.93;3.78;;;;;;;;;;5029779;28;20267;-69
2024/01/03 11:21:27;;;;;;;15.27;5.22;;;;;;;;;;5030112;28;20264;-69
2024/01/03 11:23:53;;;;;;;12.60;3.28;;;;;;;;;;5032592;28;20045;-70
2024/01/03 11:26:19;;;;;;;16.50;3.72;;;;;;;;;;5033340;28;20036;-69
2024/01/03 11:28:49;;;;;;;18.73;5.20;;;;;;;;;;5033074;28;20044;-69
2024/01/03 11:31:15;;;;;;;13.05;4.05;;;;;;;;;;5050570;28;20055;-69
2024/01/03 11:33:42;;;;;;;8.73;2.90;;;;;;;;;;5032924;28;20286;-70
2024/01/03 11:36:08;;;;;;;12.15;3.42;;;;;;;;;;5035310;28;20045;-69
2024/01/03 11:38:41;;;;;;;9.50;3.92;;;;;;;;;;5034001;28;20033;-69
2024/01/03 11:41:08;;;;;;;7.68;2.85;;;;;;;;;;5034077;28;21637;-68
2024/01/03 11:43:35;;;;;;;6.65;3.22;;;;;;;;;;5034990;28;20195;-68
2024/01/03 11:46:08;;;;;;;10.63;3.30;;;;;;;;;;5047640;28;20041;-68
2024/01/03 11:48:34;;;;;;;5.68;2.97;;;;;;;;;;5026497;28;20045;-69
2024/01/03 11:51:00;;;;;;;13.32;3.83;;;;;;;;;;5032913;28;20578;-69
2024/01/03 11:53:26;;;;;;;6.28;3.05;;;;;;;;;;5032829;28;20115;-68
2024/01/03 11:55:52;;;;;;;11.80;2.78;;;;;;;;;;5035115;28;20105;-69
2024/01/03 11:58:18;;;;;;;7.20;3.17;;;;;;;;;;5033890;28;20052;-69
2024/01/03 12:00:45;;;;;;;5.28;2.78;;;;;;;;;;5032174;28;20045;-69
2024/01/03 12:03:11;;;;;;;12.13;4.07;;;;;;;;;;5033475;28;20036;-69
2024/01/03 12:05:44;;;;;;;7.38;2.90;;;;;;;;;;5049337;28;20057;-69
2024/01/03 12:08:10;;;;;;;6.88;2.80;;;;;;;;;;5034084;28;20246;-68
2024/01/03 12:10:38;;;;;;;10.00;3.38;;;;;;;;;;5034843;28;20303;-68
2024/01/03 12:13:04;;;;;;;8.93;2.80;;;;;;;;;;5014241;28;20291;-68
2024/01/03 12:15:30;;;;;;;6.90;2.83;;;;;;;;;;5035505;28;20071;-69
2024/01/03 12:18:06;;;;;;;6.65;2.40;;;;;;;;;;5033837;28;20048;-68
2024/01/03 12:20:33;;;;;;;12.65;3.60;;;;;;;;;;5035389;28;20312;-68
2024/01/03 12:23:06;;;;;;;10.32;3.70;;;;;;;;;;5031755;28;20159;-68
2024/01/03 12:25:33;;;;;;;6.22;2.90;;;;;;;;;;5033116;28;20476;-70
2024/01/03 12:27:59;;;;;;;8.90;3.88;;;;;;;;;;5033897;28;20045;-69
2024/01/03 12:30:25;;;;;;;8.05;2.85;;;;;;;;;;5033991;28;20124;-69
2024/01/03 12:32:52;;;;;;;8.80;3.25;;;;;;;;;;5031229;28;20600;-69
2024/01/03 12:35:18;;;;;;;8.20;2.60;;;;;;;;;;5033618;28;20041;-70
2024/01/03 12:37:49;;;;;;;14.98;3.67;;;;;;;;;;5032335;28;20099;-69
2024/01/03 12:40:16;;;;;;;8.65;2.83;;;;;;;;;;5035453;28;20055;-69
2024/01/03 12:42:43;;;;;;;16.98;4.65;;;;;;;;;;5036148;28;20148;-69
2024/01/03 12:45:09;;;;;;;9.35;3.00;;;;;;;;;;5035453;28;20045;-68
2024/01/03 12:47:36;;;;;;;16.20;3.60;;;;;;;;;;5035769;28;20044;-69
2024/01/03 12:50:02;;;;;;;5.10;2.95;;;;;;;;;;5035444;28;20108;-69
2024/01/03 12:52:30;;;;;;;7.43;3.13;;;;;;;;;;5032852;28;20245;-69
2024/01/03 12:54:56;;;;;;;7.83;2.67;;;;;;;;;;5032084;28;20436;-69
2024/01/03 12:57:23;;;;;;;6.78;2.65;;;;;;;;;;5036595;28;20053;-69
2024/01/03 12:59:49;;;;;;;5.50;2.55;;;;;;;;;;5036991;28;20202;-69
2024/01/03 13:02:17;;;;;;;8.13;2.58;;;;;;;;;;5039322;28;21229;-69
2024/01/03 13:04:45;;;;;;;11.95;3.05;;;;;;;;;;5039480;28;20206;-69
2024/01/03 13:07:11;;;;;;;16.33;4.13;;;;;;;;;;5037028;28;20044;-69
2024/01/03 13:09:37;;;;;;;7.25;2.75;;;;;;;;;;5036249;28;20083;-69
2024/01/03 13:12:03;;;;;;;8.20;2.95;;;;;;;;;;5036023;28;20501;-69
2024/01/03 13:14:29;;;;;;;11.38;3.58;;;;;;;;;;5036884;28;20559;-69
2024/01/03 13:16:56;;;;;;;11.57;3.50;;;;;;;;;;5037804;28;20128;-70
2024/01/03 13:19:22;;;;;;;5.18;2.35;;;;;;;;;;5018854;28;20076;-69
2024/01/03 13:21:49;;;;;;;5.47;2.15;;;;;;;;;;5037098;28;21024;-69
2024/01/03 13:24:15;;;;;;;8.18;3.05;;;;;;;;;;5036474;28;20246;-69
2024/01/03 13:26:41;;;;;;;10.02;3.03;;;;;;;;;;5037362;28;20044;-69
2024/01/03 13:29:07;;;;;;;7.95;3.05;;;;;;;;;;5036533;28;20051;-69
2024/01/03 13:31:34;;;;;;;7.28;3.72;;;;;;;;;;5037471;28;20512;-69
2024/01/03 13:34:00;;;;;;;8.85;3.45;;;;;;;;;;5033350;28;20045;-69
2024/01/03 13:36:26;;;;;;;11.38;3.45;;;;;;;;;;5035232;28;20570;-69
2024/01/03 13:38:52;;;;;;;11.50;4.15;;;;;;;;;;5036273;28;20163;-69
2024/01/03 13:41:19;;;;;;;8.30;2.35;;;;;;;;;;5034817;28;20512;-69
2024/01/03 13:43:45;;;;;;;9.43;3.95;;;;;;;;;;5036419;28;20125;-69
2024/01/03 13:46:15;;;;;;;9.18;3.35;;;;;;;;;;5031332;28;20052;-69
2024/01/03 13:48:42;;;;;;;7.72;2.28;;;;;;;;;;5032175;28;20048;-69
2024/01/03 13:51:08;;;;;;;9.65;3.15;;;;;;;;;;5032561;28;20048;-68
2024/01/03 13:53:35;;;;;;;11.80;3.22;;;;;;;;;;5035520;28;20040;-68
2024/01/03 13:56:02;;;;;;;10.93;2.88;;;;;;;;;;5036657;28;20239;-70
2024/01/03 13:58:28;;;;;;;6.35;3.33;;;;;;;;;;5037253;28;20204;-68
2024/01/03 14:00:54;;;;;;;8.32;3.58;;;;;;;;;;5034625;28;20576;-69
2024/01/03 14:03:21;;;;;;;14.52;2.90;;;;;;;;;;5035289;28;20040;-69
2024/01/03 14:05:47;;;;;;;7.57;2.65;;;;;;;;;;5033368;28;20521;-69
2024/01/03 14:08:13;;;;;;;7.57;2.80;;;;;;;;;;5035932;28;20036;-69
2024/01/03 14:10:39;;;;;;;9.10;2.95;;;;;;;;;;5034528;28;20117;-68
2024/01/03 14:13:05;;;;;;;8.95;2.80;;;;;;;;;;5034511;28;20156;-70
2024/01/03 14:15:31;;;;;;;7.13;3.10;;;;;;;;;;5033550;28;20520;-69
2024/01/03 14:18:00;;;;;;;9.35;3.65;;;;;;;;;;5033636;28;20237;-70
2024/01/03 14:20:28;;;;;;;8.27;3.08;;;;;;;;;;5034097;28;20550;-69
2024/01/03 14:22:54;;;;;;;11.68;3.42;;;;;;;;;;5031826;28;20259;-69
2024/01/03 14:25:23;;;;;;;8.48;2.60;;;;;;;;;;5033129;28;20113;-69
2024/01/03 14:27:52;;;;;;;8.18;2.88;;;;;;;;;;5033497;28;20053;-68
2024/01/03 14:30:19;;;;;;;10.95;2.88;;;;;;;;;;5033992;28;20055;-68
2024/01/03 14:32:45;;;;;;;7.57;2.58;;;;;;;;;;5035508;28;20119;-70
2024/01/03 14:35:15;;;;;;;5.75;3.00;;;;;;;;;;5034867;28;20072;-70